VE-0005 weather

Aeroatun Heliport
Cumaná, Sucre, Venezuela

Public forecast

Using degrees Celsius for public forecast. Weather courtesy of forecast.io.

Closest aviation weather report (METAR) to Aeroatun Heliport

Report is more than 6 hours old.

Closest report is Cumaná (Antonio José de Sucre) Airport, 3.5 nm (6.4 km) ESE. Retrieved 2019/06/24 18:04 UTC (6 months ago):

SVCU 241804Z 10025KT 9999 CB/NE

Closest aviation forecast (TAF) to Aeroatun Heliport

Closest forecast is Del Caribe Santiago Mariño International Airport, 29.4 nm (54.5 km) NNE. Retrieved 2019/12/13 12:03 UTC (4 hours ago):

TAF SVMG 131000Z 1312/1412 09006KT 9999 FEW016 SCT100 TX33/18Z TN23/08Z BECMG 1312/1318 09008KT FEW016 SCT070